createdAt,value
2022-10-23T00:03:58.557Z,49.96
2022-10-23T00:09:02.132Z,50.02
2022-10-23T00:14:08.035Z,49.86
2022-10-23T00:19:12.906Z,49.62
2022-10-23T00:24:16.376Z,50.08
2022-10-23T00:29:19.759Z,49.89
2022-10-23T00:34:24.926Z,50.11
2022-10-23T00:39:28.313Z,50.26
2022-10-23T00:45:10.443Z,50.00
2022-10-23T00:50:15.446Z,50.28
2022-10-23T00:55:20.616Z,50.09
2022-10-23T01:00:26.612Z,51.02
2022-10-23T01:05:33.797Z,50.34
2022-10-23T01:10:41.538Z,50.33
2022-10-23T01:15:52.860Z,50.31
2022-10-23T01:21:01.015Z,50.45
2022-10-23T01:26:16.630Z,50.76
2022-10-23T01:31:26.010Z,51.28
2022-10-23T01:36:30.435Z,50.66
2022-10-23T01:41:39.314Z,50.49
2022-10-23T01:46:45.235Z,50.43
2022-10-23T01:51:51.947Z,50.26
2022-10-23T01:56:55.632Z,50.42
2022-10-23T02:02:04.781Z,49.96
2022-10-23T02:07:08.512Z,50.20
2022-10-23T02:12:15.320Z,49.76
2022-10-23T02:17:25.445Z,50.08
2022-10-23T02:22:31.928Z,49.89
2022-10-23T02:27:38.940Z,50.34
2022-10-23T02:32:48.765Z,50.61
2022-10-23T02:37:54.470Z,49.84
2022-10-23T02:43:04.129Z,50.42
2022-10-23T02:48:14.510Z,50.67
2022-10-23T02:53:24.979Z,51.17
2022-10-23T02:58:30.467Z,51.04
2022-10-23T03:03:39.464Z,51.60
2022-10-23T03:08:44.272Z,50.83
2022-10-23T03:13:47.703Z,51.53
2022-10-23T03:18:52.623Z,51.00
2022-10-23T03:23:56.083Z,51.10
2022-10-23T03:29:06.884Z,51.27
2022-10-23T03:34:19.333Z,51.44
2022-10-23T03:39:23.282Z,51.67
2022-10-23T03:44:26.733Z,51.08
2022-10-23T03:49:31.950Z,51.04
2022-10-23T03:54:40.592Z,51.14
2022-10-23T03:59:43.991Z,51.52
2022-10-23T04:04:48.836Z,51.86
2022-10-23T04:09:52.452Z,51.99
2022-10-23T04:14:55.868Z,51.12
2022-10-23T04:20:00.715Z,51.23
2022-10-23T04:25:04.466Z,51.12
2022-10-23T04:30:10.601Z,51.09
2022-10-23T04:35:16.692Z,51.33
2022-10-23T04:40:20.123Z,51.18
2022-10-23T04:45:23.929Z,50.99
2022-10-23T04:50:28.882Z,52.78
2022-10-23T04:55:51.666Z,52.75
2022-10-23T05:01:03.177Z,52.73
2022-10-23T05:06:08.874Z,52.34
2022-10-23T05:11:26.014Z,52.28
2022-10-23T05:16:37.413Z,52.75
2022-10-23T05:21:42.612Z,52.53
2022-10-23T05:26:46.194Z,52.23
2022-10-23T05:31:52.114Z,52.53
2022-10-23T05:36:57.953Z,52.92
2022-10-23T05:42:01.488Z,52.21
2022-10-23T05:47:05.098Z,52.02
2022-10-23T05:52:28.543Z,52.06
2022-10-23T05:57:52.254Z,52.18
2022-10-23T06:03:06.531Z,52.77
2022-10-23T06:08:17.981Z,52.89
2022-10-23T06:13:23.903Z,52.83
2022-10-23T06:18:27.639Z,52.81
2022-10-23T06:23:48.235Z,52.66
2022-10-23T06:29:03.667Z,53.16
2022-10-23T06:34:07.143Z,53.26
2022-10-23T06:39:12.097Z,53.19
2022-10-23T06:44:35.013Z,52.94
2022-10-23T06:49:45.358Z,53.41
2022-10-23T06:54:50.217Z,53.88
2022-10-23T07:00:01.182Z,53.78
2022-10-23T07:05:09.949Z,54.25
2022-10-23T07:10:18.557Z,53.81
2022-10-23T07:15:27.666Z,54.09
2022-10-23T07:20:31.423Z,53.95
2022-10-23T07:25:37.186Z,54.01
2022-10-23T07:30:42.889Z,54.26
2022-10-23T07:35:48.449Z,54.14
2022-10-23T07:41:01.062Z,53.81
2022-10-23T07:46:04.687Z,53.69
2022-10-23T07:51:15.350Z,52.87
2022-10-23T07:56:29.728Z,52.94
2022-10-23T08:01:51.457Z,52.66
2022-10-23T08:06:57.979Z,52.80
2022-10-23T08:12:03.903Z,52.01
2022-10-23T08:17:09.575Z,52.13
2022-10-23T08:22:39.443Z,52.29
2022-10-23T08:27:45.246Z,52.06
2022-10-23T08:32:50.587Z,51.47
2022-10-23T08:37:54.118Z,51.08
2022-10-23T08:43:04.580Z,50.89
2022-10-23T08:48:14.438Z,50.71
2022-10-23T08:53:53.890Z,49.67
2022-10-23T08:59:05.217Z,49.49
2022-10-23T09:04:11.326Z,49.12
2022-10-23T09:09:30.264Z,48.78
2022-10-23T09:14:49.984Z,48.41
2022-10-23T09:20:07.206Z,48.39
2022-10-23T09:25:12.014Z,47.97
2022-10-23T09:30:31.885Z,47.56
2022-10-23T09:35:35.230Z,47.53
2022-10-23T09:40:42.134Z,47.62
2022-10-23T09:45:58.377Z,47.45
2022-10-23T09:51:04.409Z,46.95
2022-10-23T09:56:24.636Z,47.30
2022-10-23T10:01:33.611Z,46.47
2022-10-23T10:07:03.669Z,46.09
2022-10-23T10:12:19.314Z,45.80
2022-10-23T10:17:35.751Z,45.68
2022-10-23T10:22:41.816Z,45.39
2022-10-23T10:27:53.948Z,44.54
2022-10-23T10:33:03.882Z,44.96
2022-10-23T10:38:19.372Z,44.52
2022-10-23T10:43:30.351Z,44.83
2022-10-23T10:48:47.331Z,43.63
2022-10-23T10:54:18.565Z,43.03
2022-10-23T10:59:24.614Z,42.10
2022-10-23T11:04:35.189Z,42.60
2022-10-23T11:09:39.516Z,42.56
2022-10-23T11:14:43.679Z,42.21
2022-10-23T11:19:50.386Z,42.07
2022-10-23T11:25:19.219Z,41.72
2022-10-23T11:30:25.026Z,41.52
2022-10-23T11:35:43.742Z,40.70
2022-10-23T11:40:52.111Z,40.46
2022-10-23T11:45:55.726Z,40.11
2022-10-23T11:51:04.245Z,39.98
2022-10-23T11:56:27.361Z,39.83
2022-10-23T12:01:37.383Z,39.17
2022-10-23T12:06:43.740Z,39.88
2022-10-23T12:11:51.231Z,38.83
2022-10-23T12:16:54.862Z,39.07
2022-10-23T12:22:02.230Z,38.96
2022-10-23T12:27:15.943Z,39.16
2022-10-23T12:32:40.450Z,39.96
2022-10-23T12:37:55.882Z,40.02
2022-10-23T12:43:00.411Z,39.51
2022-10-23T12:48:03.926Z,39.58
2022-10-23T12:53:16.422Z,39.74
2022-10-23T12:58:21.316Z,40.35
2022-10-23T13:03:27.256Z,40.48
2022-10-23T13:08:35.301Z,39.90
2022-10-23T13:13:56.995Z,40.73
2022-10-23T13:19:00.385Z,40.11
2022-10-23T13:24:05.601Z,40.22
2022-10-23T13:29:20.614Z,39.25
2022-10-23T13:34:26.511Z,39.37
2022-10-23T13:39:33.851Z,39.69
2022-10-23T13:44:37.969Z,40.39
2022-10-23T13:49:41.341Z,39.77
2022-10-23T13:54:46.359Z,40.28
2022-10-23T13:59:49.719Z,40.40
2022-10-23T14:04:53.120Z,41.23
2022-10-23T14:09:57.868Z,40.77
2022-10-23T14:15:01.199Z,41.35
2022-10-23T14:20:06.294Z,41.08
2022-10-23T14:25:11.366Z,41.33
2022-10-23T14:30:15.103Z,41.76
2022-10-23T14:35:18.479Z,41.79
2022-10-23T14:40:23.147Z,41.95
2022-10-23T14:45:26.555Z,41.85
2022-10-23T14:50:30.747Z,41.93
2022-10-23T14:55:35.511Z,41.71
2022-10-23T15:00:39.292Z,41.88
2022-10-23T15:05:43.265Z,41.76
2022-10-23T15:10:47.981Z,42.03
2022-10-23T15:15:51.351Z,41.68
2022-10-23T15:20:54.739Z,42.03
2022-10-23T15:26:00.339Z,41.85
2022-10-23T15:31:04.043Z,41.25
2022-10-23T15:36:07.742Z,41.46
2022-10-23T15:41:17.463Z,41.63
2022-10-23T15:46:20.790Z,41.83
2022-10-23T15:51:24.134Z,42.11
2022-10-23T15:56:28.942Z,42.16
2022-10-23T16:01:32.363Z,42.48
2022-10-23T16:06:35.991Z,42.29
2022-10-23T16:11:41.491Z,42.77
2022-10-23T16:16:44.974Z,43.11
2022-10-23T16:21:48.323Z,43.16
2022-10-23T16:26:56.245Z,43.58
2022-10-23T16:32:00.093Z,43.66
2022-10-23T16:37:03.443Z,43.67
2022-10-23T16:42:24.078Z,43.44
2022-10-23T16:47:39.320Z,43.37
2022-10-23T16:52:43.029Z,43.21
2022-10-23T16:57:48.057Z,43.27
2022-10-23T17:02:51.458Z,43.27
2022-10-23T17:07:54.844Z,43.27
2022-10-23T17:12:59.609Z,43.44
2022-10-23T17:18:03.001Z,43.39
2022-10-23T17:23:06.440Z,43.24
2022-10-23T17:28:11.255Z,43.11
2022-10-23T17:33:14.959Z,43.10
2022-10-23T17:38:19.104Z,43.16
2022-10-23T17:43:23.851Z,43.47
2022-10-23T17:48:27.611Z,42.71
2022-10-23T17:53:31.351Z,43.13
2022-10-23T17:58:36.747Z,42.97
2022-10-23T18:03:41.350Z,43.07
2022-10-23T18:08:45.319Z,43.41
2022-10-23T18:13:50.612Z,43.43
2022-10-23T18:18:54.227Z,45.33
2022-10-23T18:23:59.578Z,45.17
2022-10-23T18:29:07.420Z,45.52
2022-10-23T18:34:15.819Z,45.90
2022-10-23T18:39:22.361Z,46.17
2022-10-23T18:44:28.955Z,45.91
2022-10-23T18:49:32.301Z,46.78
2022-10-23T18:54:35.702Z,47.12
2022-10-23T18:59:40.450Z,47.49
2022-10-23T19:04:43.794Z,47.90
2022-10-23T19:09:47.220Z,48.27
2022-10-23T19:14:52.186Z,48.19
2022-10-23T19:19:57.058Z,48.53
2022-10-23T19:25:07.359Z,47.74
2022-10-23T19:30:13.722Z,48.06
2022-10-23T19:35:19.572Z,48.74
2022-10-23T19:40:24.189Z,49.32
2022-10-23T19:45:28.993Z,49.80
2022-10-23T19:50:32.485Z,50.18
2022-10-23T19:55:35.869Z,51.18
2022-10-23T20:00:40.591Z,51.20
2022-10-23T20:05:45.515Z,50.98
2022-10-23T20:10:48.979Z,51.08
2022-10-23T20:15:53.682Z,51.45
2022-10-23T20:20:57.094Z,52.08
2022-10-23T20:26:07.863Z,52.19
2022-10-23T20:31:12.666Z,52.10
2022-10-23T20:36:25.105Z,53.09
2022-10-23T20:41:28.980Z,53.93
2022-10-23T20:46:33.983Z,53.43
2022-10-23T20:51:37.651Z,53.76
2022-10-23T20:56:41.062Z,54.54
2022-10-23T21:01:49.482Z,53.79
2022-10-23T21:07:11.167Z,53.38
2022-10-23T21:12:14.948Z,53.01
2022-10-23T21:17:19.693Z,52.51
2022-10-23T21:22:23.087Z,52.89
2022-10-23T21:27:27.003Z,52.19
2022-10-23T21:32:31.661Z,52.48
2022-10-23T21:37:34.999Z,52.70
2022-10-23T21:42:38.368Z,53.51
2022-10-23T21:47:43.366Z,54.52
2022-10-23T21:52:51.385Z,53.41
2022-10-23T21:57:54.738Z,53.14
2022-10-23T22:02:59.435Z,53.21
2022-10-23T22:08:02.810Z,52.95
2022-10-23T22:13:06.165Z,52.91
2022-10-23T22:18:10.873Z,53.12
2022-10-23T22:23:14.214Z,52.89
2022-10-23T22:28:17.849Z,52.85
2022-10-23T22:33:22.642Z,54.31
2022-10-23T22:38:26.014Z,54.14
2022-10-23T22:43:29.838Z,54.02
2022-10-23T22:48:34.650Z,53.18
2022-10-23T22:53:38.183Z,53.39
2022-10-23T22:58:41.631Z,53.47
2022-10-23T23:03:46.895Z,52.46
2022-10-23T23:08:51.017Z,53.25
2022-10-23T23:13:54.459Z,53.32
2022-10-23T23:19:01.106Z,53.67
2022-10-23T23:24:04.901Z,54.20
2022-10-23T23:29:08.223Z,53.58
2022-10-23T23:34:12.962Z,53.98
2022-10-23T23:39:16.328Z,53.66
2022-10-23T23:44:19.729Z,54.11
2022-10-23T23:49:24.839Z,53.95
2022-10-23T23:54:28.331Z,54.14
2022-10-23T23:59:31.678Z,53.86
